Time;durP1;ratioP1;P1;durP2;ratioP2;P2;SDS_P1;SDS_P2;PMS_P1;PMS_P2;Temp;Humidity;BMP_temperature;BMP_pressure;BME280_temperature;BME280_humidity;BME280_pressure;Samples;Min_cycle;Max_cycle;Signal;HPM_P1;HPM_P2
2021/06/28 00:01:51;;;;;;;5.40;4.47;;;;;;;15.15;95.49;100828.91;5025966;28;20233;-78
2021/06/28 00:04:17;;;;;;;4.83;4.37;;;;;;;15.25;97.32;100827.59;5026099;28;20686;-79
2021/06/28 00:06:45;;;;;;;5.93;4.47;;;;;;;15.15;95.83;100828.91;5026677;28;20302;-80
2021/06/28 00:09:11;;;;;;;4.93;4.47;;;;;;;15.15;96.56;100827.13;5024147;28;20280;-80
2021/06/28 00:11:38;;;;;;;4.60;4.20;;;;;;;15.14;96.97;100829.81;5025215;28;20877;-80
2021/06/28 00:14:04;;;;;;;5.87;4.80;;;;;;;15.04;94.46;100833.75;5023612;28;20545;-77
2021/06/28 00:16:31;;;;;;;5.13;4.63;;;;;;;15.15;97.49;100828.91;5016670;28;20664;-77
2021/06/28 00:19:00;;;;;;;5.27;4.20;;;;;;;15.15;97.31;100842.03;5023311;28;20259;-80
2021/06/28 00:21:26;;;;;;;4.77;4.27;;;;;;;15.01;96.69;100845.22;5030770;28;20230;-78
2021/06/28 00:23:54;;;;;;;5.33;4.80;;;;;;;14.98;96.66;100845.34;5006511;28;20297;-77
2021/06/28 00:26:20;;;;;;;5.20;4.40;;;;;;;14.99;96.93;100835.72;5024713;28;20525;-77
2021/06/28 00:28:47;;;;;;;5.87;4.87;;;;;;;14.96;96.69;100845.41;5023022;28;20230;-79
2021/06/28 00:31:13;;;;;;;5.70;5.10;;;;;;;14.89;96.33;100837.88;5025384;28;20309;-78
2021/06/28 00:33:40;;;;;;;5.37;4.60;;;;;;;14.90;96.91;100839.59;5015762;28;20550;-78
2021/06/28 00:36:07;;;;;;;6.33;5.17;;;;;;;14.87;97.21;100837.06;5022243;28;20198;-78
2021/06/28 00:38:33;;;;;;;6.67;5.23;;;;;;;14.72;95.70;100842.03;5006131;28;20224;-80
2021/06/28 00:41:01;;;;;;;6.27;5.10;;;;;;;14.74;98.55;100834.09;5025526;28;20214;-80
2021/06/28 00:43:28;;;;;;;5.33;4.83;;;;;;;14.68;97.43;100842.19;5024895;28;20207;-80
2021/06/28 00:45:54;;;;;;;5.13;4.63;;;;;;;14.75;99.16;100836.63;5012548;28;20203;-79
2021/06/28 00:48:21;;;;;;;5.53;5.03;;;;;;;14.62;96.93;100842.47;5025947;28;20292;-78
2021/06/28 00:50:51;;;;;;;5.20;4.67;;;;;;;14.56;98.41;100843.50;5029906;28;20223;-77
2021/06/28 00:53:19;;;;;;;6.43;5.17;;;;;;;14.53;98.40;100846.28;5021385;28;20200;-78
2021/06/28 00:55:46;;;;;;;5.63;5.03;;;;;;;14.44;98.33;100846.59;5024238;28;20209;-77
2021/06/28 00:58:15;;;;;;;6.60;5.33;;;;;;;14.39;98.19;100844.19;5025310;28;20207;-77
2021/06/28 01:00:42;;;;;;;5.50;5.00;;;;;;;14.42;99.82;100838.78;5023579;28;20206;-80
2021/06/28 01:03:08;;;;;;;5.47;4.83;;;;;;;14.44;100.00;100841.34;5019852;28;20203;-78
2021/06/28 01:05:37;;;;;;;6.77;6.00;;;;;;;14.38;100.00;100837.22;5009474;28;20642;-79
2021/06/28 01:08:05;;;;;;;5.63;4.83;;;;;;;14.32;100.00;100837.47;5024094;28;20286;-78
2021/06/28 01:10:33;;;;;;;5.93;5.23;;;;;;;14.30;100.00;100834.88;5021453;28;20217;-78
2021/06/28 01:13:01;;;;;;;6.43;5.17;;;;;;;14.34;100.00;100831.22;5022586;28;20240;-77
2021/06/28 01:15:29;;;;;;;5.80;5.20;;;;;;;14.27;100.00;100828.91;5021089;28;20555;-78
2021/06/28 01:17:55;;;;;;;6.20;5.27;;;;;;;14.20;100.00;100833.53;5021569;28;20621;-79
2021/06/28 01:20:23;;;;;;;5.97;5.17;;;;;;;14.23;100.00;100841.28;5001790;28;20192;-80
2021/06/28 01:22:52;;;;;;;5.90;5.23;;;;;;;14.22;100.00;100831.69;5010238;28;20281;-78
2021/06/28 01:25:23;;;;;;;6.13;5.33;;;;;;;14.23;100.00;100828.19;5027531;28;20435;-79
2021/06/28 01:27:49;;;;;;;5.40;4.87;;;;;;;14.28;100.00;100836.72;5022592;28;20299;-78
2021/06/28 01:30:19;;;;;;;5.97;5.10;;;;;;;14.23;100.00;100828.19;5028483;28;20238;-78
2021/06/28 01:32:47;;;;;;;5.53;5.00;;;;;;;14.15;100.00;100825.81;5027779;28;20225;-77
2021/06/28 01:35:15;;;;;;;6.13;4.87;;;;;;;14.08;100.00;100828.75;5023359;28;20510;-80
2021/06/28 01:37:42;;;;;;;5.80;5.07;;;;;;;14.00;100.00;100836.88;5022819;28;20233;-77
2021/06/28 01:40:12;;;;;;;6.30;5.33;;;;;;;14.02;100.00;100829.84;5021387;28;20204;-77
2021/06/28 01:42:40;;;;;;;6.27;5.40;;;;;;;14.02;100.00;100830.69;5021947;28;20223;-77
2021/06/28 01:45:09;;;;;;;6.47;5.77;;;;;;;14.01;100.00;100841.22;5023271;28;20202;-78
2021/06/28 01:47:36;;;;;;;7.63;6.10;;;;;;;13.93;100.00;100843.25;5028246;28;20206;-79
2021/06/28 01:50:04;;;;;;;5.97;5.37;;;;;;;13.92;100.00;100837.16;5022490;28;20231;-78
2021/06/28 01:52:31;;;;;;;7.77;5.90;;;;;;;14.09;100.00;100835.69;5019666;28;20230;-78
2021/06/28 01:54:57;;;;;;;6.93;5.80;;;;;;;13.99;100.00;100836.03;5024829;28;20207;-78
2021/06/28 01:57:23;;;;;;;5.63;5.13;;;;;;;14.18;100.00;100836.19;5022148;28;20710;-78
2021/06/28 01:59:51;;;;;;;5.97;4.93;;;;;;;14.06;100.00;100843.69;5023640;28;20206;-78
2021/06/28 02:02:18;;;;;;;6.50;5.57;;;;;;;13.97;100.00;100842.25;5001782;28;20378;-79
2021/06/28 02:04:47;;;;;;;9.77;6.20;;;;;;;13.92;100.00;100841.56;5022251;28;20208;-78
2021/06/28 02:07:13;;;;;;;6.20;5.60;;;;;;;14.01;100.00;100842.06;5025880;28;20629;-78
2021/06/28 02:09:40;;;;;;;8.13;5.80;;;;;;;14.01;100.00;100839.44;5025670;28;20566;-79
2021/06/28 02:12:07;;;;;;;7.30;5.67;;;;;;;14.12;100.00;100838.19;5027171;28;20236;-78
2021/06/28 02:14:35;;;;;;;6.63;5.93;;;;;;;14.13;100.00;100835.53;5026987;28;20210;-79
2021/06/28 02:17:03;;;;;;;6.27;5.67;;;;;;;14.16;100.00;100837.19;5031475;28;20296;-77
2021/06/28 02:19:29;;;;;;;5.83;5.23;;;;;;;14.19;100.00;100840.53;5024320;28;20212;-78
2021/06/28 02:21:56;;;;;;;6.60;5.97;;;;;;;14.24;100.00;100834.25;5027898;28;20719;-79
2021/06/28 02:24:22;;;;;;;7.57;5.70;;;;;;;14.34;100.00;100835.63;5028455;28;20685;-78
2021/06/28 02:26:49;;;;;;;6.53;5.60;;;;;;;14.28;100.00;100835.84;5026409;28;20461;-79
2021/06/28 02:29:15;;;;;;;7.17;6.03;;;;;;;14.36;100.00;100834.63;5007486;28;20206;-77
2021/06/28 02:31:43;;;;;;;6.30;5.70;;;;;;;14.33;100.00;100836.53;5022580;28;20269;-78
2021/06/28 02:34:11;;;;;;;6.30;5.70;;;;;;;14.29;100.00;100830.53;5028335;28;20205;-77
2021/06/28 02:36:38;;;;;;;9.90;6.27;;;;;;;14.24;100.00;100831.63;5027562;28;20228;-77
2021/06/28 02:39:06;;;;;;;6.13;5.53;;;;;;;14.27;100.00;100828.91;5028647;28;20208;-78
2021/06/28 02:41:33;;;;;;;6.47;5.80;;;;;;;14.41;100.00;100826.59;5024259;28;20257;-79
2021/06/28 02:43:59;;;;;;;6.67;5.50;;;;;;;14.38;100.00;100824.09;5024313;28;20204;-76
2021/06/28 02:46:26;;;;;;;5.80;5.10;;;;;;;14.46;100.00;100816.78;5025700;28;20209;-79
2021/06/28 02:48:52;;;;;;;6.40;5.80;;;;;;;14.51;100.00;100812.22;5023929;28;20387;-77
2021/06/28 02:51:20;;;;;;;8.23;7.10;;;;;;;14.45;100.00;100814.22;5028180;28;20221;-79
2021/06/28 02:53:47;;;;;;;7.23;6.30;;;;;;;14.66;100.00;100812.53;5024045;28;20691;-77
2021/06/28 02:56:14;;;;;;;7.60;5.60;;;;;;;14.74;100.00;100808.69;5030122;28;20210;-80
2021/06/28 02:58:42;;;;;;;7.57;6.43;;;;;;;14.76;100.00;100806.00;5026216;28;20225;-80
2021/06/28 03:01:09;;;;;;;7.77;6.27;;;;;;;14.75;100.00;100807.75;5008690;28;20541;-80
2021/06/28 03:03:35;;;;;;;6.93;6.23;;;;;;;14.73;100.00;100800.88;5027594;28;20222;-78
2021/06/28 03:06:02;;;;;;;7.30;5.93;;;;;;;14.79;100.00;100802.41;5021229;28;20210;-78
2021/06/28 03:08:30;;;;;;;8.83;6.50;;;;;;;14.79;100.00;100798.00;5020734;28;20203;-78
2021/06/28 03:10:56;;;;;;;8.00;7.20;;;;;;;14.83;100.00;100799.59;5025355;28;20788;-78
2021/06/28 03:13:23;;;;;;;8.40;6.83;;;;;;;14.94;100.00;100804.41;5028299;28;20392;-79
2021/06/28 03:15:49;;;;;;;6.60;6.00;;;;;;;14.96;100.00;100798.16;5026372;28;20232;-79
2021/06/28 03:18:15;;;;;;;6.80;6.07;;;;;;;15.04;100.00;100799.59;5024875;28;20520;-80
2021/06/28 03:20:42;;;;;;;9.13;7.07;;;;;;;15.02;100.00;100801.44;5027665;28;20229;-80
2021/06/28 03:23:09;;;;;;;7.87;7.03;;;;;;;15.07;100.00;100808.19;5025306;28;20211;-78
2021/06/28 03:25:37;;;;;;;7.97;6.63;;;;;;;15.13;100.00;100807.13;5035053;28;20215;-77
2021/06/28 03:28:04;;;;;;;7.63;6.33;;;;;;;15.26;100.00;100815.31;5024815;28;20206;-80
2021/06/28 03:30:33;;;;;;;7.37;6.40;;;;;;;15.30;100.00;100817.75;5024405;28;20593;-80
2021/06/28 03:33:00;;;;;;;7.37;6.57;;;;;;;15.33;100.00;100819.38;5024022;28;20208;-81
2021/06/28 03:35:26;;;;;;;7.73;6.93;;;;;;;15.37;100.00;100814.84;5009899;28;20297;-78
2021/06/28 03:37:53;;;;;;;9.03;6.57;;;;;;;15.42;100.00;100816.34;5030234;28;20197;-79
2021/06/28 03:40:20;;;;;;;7.23;6.33;;;;;;;15.51;100.00;100821.25;5024141;28;20227;-77
2021/06/28 03:42:47;;;;;;;8.03;7.07;;;;;;;15.54;100.00;100820.25;5024838;28;20701;-78
2021/06/28 03:45:15;;;;;;;7.77;6.87;;;;;;;15.63;100.00;100822.44;5025192;28;20234;-77
2021/06/28 03:47:42;;;;;;;7.80;6.47;;;;;;;15.67;100.00;100825.78;5023692;28;20307;-77
2021/06/28 03:50:12;;;;;;;8.23;7.37;;;;;;;15.72;100.00;100829.06;5029819;28;20219;-79
2021/06/28 03:52:39;;;;;;;8.03;7.13;;;;;;;15.77;99.24;100837.66;5027371;28;20231;-79
2021/06/28 03:55:08;;;;;;;7.93;7.13;;;;;;;15.87;99.90;100833.69;5024164;28;20193;-78
2021/06/28 03:57:34;;;;;;;8.03;7.23;;;;;;;15.98;99.68;100825.31;5021737;28;20214;-76
2021/06/28 04:00:07;;;;;;;10.30;9.03;;;;;;;16.02;99.58;100829.53;5006975;28;20327;-78
2021/06/28 04:02:36;;;;;;;11.87;10.07;;;;;;;16.10;97.43;100831.81;5023800;28;20912;-79
2021/06/28 04:05:05;;;;;;;11.90;10.30;;;;;;;16.17;96.21;100835.00;5029851;28;20214;-79
2021/06/28 04:07:32;;;;;;;10.87;9.43;;;;;;;16.28;97.59;100837.97;5028049;28;20270;-78
2021/06/28 04:09:58;;;;;;;12.27;9.40;;;;;;;16.37;98.34;100840.16;5023474;28;20205;-79
2021/06/28 04:12:25;;;;;;;10.23;8.73;;;;;;;16.47;97.74;100841.44;5012730;28;20309;-78
2021/06/28 04:14:51;;;;;;;10.50;8.90;;;;;;;16.55;98.41;100833.22;5019109;28;20219;-77
2021/06/28 04:17:19;;;;;;;10.50;8.77;;;;;;;16.62;96.27;100844.28;5027768;28;20291;-80
2021/06/28 04:19:45;;;;;;;11.63;9.80;;;;;;;16.78;96.04;100845.25;5024697;28;20198;-79
2021/06/28 04:22:12;;;;;;;10.23;9.23;;;;;;;16.99;94.00;100850.41;5022589;28;20274;-78
2021/06/28 04:24:38;;;;;;;12.20;10.90;;;;;;;17.08;92.02;100859.66;5031053;28;20205;-80
2021/06/28 04:27:04;;;;;;;11.10;10.00;;;;;;;17.11;90.92;100855.06;5021347;28;20722;-80
2021/06/28 04:29:31;;;;;;;10.47;9.37;;;;;;;17.13;90.06;100860.28;5032925;28;20589;-78
2021/06/28 04:31:57;;;;;;;10.10;8.97;;;;;;;17.18;90.33;100848.59;5022950;28;20305;-79
2021/06/28 04:34:25;;;;;;;10.63;9.50;;;;;;;17.27;90.25;100849.03;5027357;28;20216;-80
2021/06/28 04:36:51;;;;;;;12.17;8.93;;;;;;;17.35;91.33;100860.06;5022115;28;20212;-79
2021/06/28 04:39:18;;;;;;;10.87;9.77;;;;;;;17.39;92.20;100862.44;5008620;28;20690;-79
2021/06/28 04:41:44;;;;;;;9.90;8.90;;;;;;;17.41;93.44;100865.88;5022913;28;20215;-79
2021/06/28 04:44:10;;;;;;;9.53;8.53;;;;;;;17.38;91.19;100862.53;5023153;28;20222;-81
2021/06/28 04:46:38;;;;;;;10.37;9.10;;;;;;;17.45;91.21;100860.44;5029186;28;21093;-79
2021/06/28 04:49:04;;;;;;;8.83;7.93;;;;;;;17.49;91.38;100851.44;5023256;28;20211;-81
2021/06/28 04:51:33;;;;;;;10.37;9.27;;;;;;;17.52;89.61;100853.91;5024958;28;20812;-80
2021/06/28 04:54:00;;;;;;;12.03;9.00;;;;;;;17.59;89.16;100858.81;5022048;28;21048;-79
2021/06/28 04:56:26;;;;;;;9.67;8.67;;;;;;;17.61;88.31;100858.72;5023635;28;20300;-80
2021/06/28 04:58:52;;;;;;;10.43;7.97;;;;;;;17.66;88.03;100859.34;5028225;28;20203;-79
2021/06/28 05:01:19;;;;;;;10.20;9.20;;;;;;;17.72;90.83;100858.16;5022023;28;20220;-80
2021/06/28 05:03:45;;;;;;;9.67;8.57;;;;;;;17.73;90.94;100858.09;5024589;28;20710;-79
2021/06/28 05:06:11;;;;;;;10.67;8.90;;;;;;;17.76;92.93;100857.06;5017952;28;20269;-79
2021/06/28 05:08:39;;;;;;;10.13;8.87;;;;;;;17.80;92.37;100858.63;5024615;28;20215;-79
2021/06/28 05:11:05;;;;;;;9.73;8.50;;;;;;;17.87;91.63;100857.41;5020513;28;20255;-80
2021/06/28 05:13:32;;;;;;;10.33;8.87;;;;;;;17.95;91.61;100860.47;5028923;28;20199;-80
2021/06/28 05:15:58;;;;;;;9.67;8.67;;;;;;;18.00;92.87;100868.13;5024317;28;20290;-80
2021/06/28 05:18:25;;;;;;;9.80;8.80;;;;;;;18.02;91.57;100868.06;5027254;28;20791;-78
2021/06/28 05:20:51;;;;;;;11.20;9.70;;;;;;;18.06;89.50;100877.50;5026879;28;20287;-78
2021/06/28 05:23:19;;;;;;;11.23;9.30;;;;;;;18.11;89.30;100875.47;5017839;28;20204;-78
2021/06/28 05:25:47;;;;;;;10.77;9.67;;;;;;;18.18;88.36;100879.47;5025536;28;20806;-78
2021/06/28 05:28:15;;;;;;;11.77;9.13;;;;;;;18.24;86.99;100880.94;5021399;28;20210;-80
2021/06/28 05:30:41;;;;;;;11.63;9.43;;;;;;;18.25;85.15;100877.38;5029394;28;20814;-80
2021/06/28 05:33:08;;;;;;;10.63;9.53;;;;;;;18.30;84.23;100877.97;5023981;28;20198;-78
2021/06/28 05:35:34;;;;;;;11.87;9.00;;;;;;;18.41;85.01;100875.59;5021613;28;20970;-78
2021/06/28 05:38:01;;;;;;;11.30;9.43;;;;;;;18.55;84.15;100878.31;5022634;28;20196;-79
2021/06/28 05:40:27;;;;;;;10.57;9.20;;;;;;;18.71;84.81;100882.75;5021117;28;20196;-79
2021/06/28 05:42:55;;;;;;;10.77;9.57;;;;;;;18.86;84.30;100887.19;5024179;28;20658;-79
2021/06/28 05:45:21;;;;;;;11.13;9.13;;;;;;;18.98;82.65;100880.38;5023591;28;20230;-78
2021/06/28 05:47:48;;;;;;;12.23;9.93;;;;;;;19.11;80.64;100881.34;5008333;28;20208;-76
2021/06/28 05:50:17;;;;;;;10.53;8.97;;;;;;;19.31;81.30;100881.97;5020986;28;20215;-78
2021/06/28 05:52:44;;;;;;;11.03;9.93;;;;;;;19.45;79.09;100889.09;5022727;28;20239;-77
2021/06/28 05:55:12;;;;;;;9.97;8.97;;;;;;;19.66;79.26;100882.56;5023519;28;20583;-77
2021/06/28 05:57:38;;;;;;;10.20;9.10;;;;;;;19.84;77.93;100880.63;5021390;28;20206;-76
2021/06/28 06:00:08;;;;;;;10.00;9.00;;;;;;;20.03;78.19;100880.34;5031969;28;20235;-77
2021/06/28 06:02:39;;;;;;;9.30;8.27;;;;;;;20.18;79.62;100880.34;5020080;28;20219;-75
2021/06/28 06:05:08;;;;;;;10.00;8.43;;;;;;;20.24;77.37;100875.50;5030222;28;20196;-78
2021/06/28 06:07:35;;;;;;;10.13;9.00;;;;;;;20.30;76.38;100882.22;5020863;28;20448;-78
2021/06/28 06:10:01;;;;;;;9.93;8.53;;;;;;;20.33;76.02;100873.22;5021156;28;20614;-78
2021/06/28 06:12:28;;;;;;;10.47;9.33;;;;;;;20.38;76.28;100884.38;5023249;28;20226;-77
2021/06/28 06:14:54;;;;;;;9.57;8.50;;;;;;;20.42;76.72;100883.22;5022378;28;20690;-77
2021/06/28 06:17:22;;;;;;;9.63;8.40;;;;;;;20.55;75.31;100888.59;5021915;28;20207;-77
2021/06/28 06:19:48;;;;;;;9.83;8.73;;;;;;;20.67;75.11;100879.03;5018863;28;20306;-75
2021/06/28 06:22:15;;;;;;;9.43;8.43;;;;;;;20.79;76.49;100878.22;5024518;28;20238;-76
2021/06/28 06:24:41;;;;;;;9.10;8.13;;;;;;;20.89;74.17;100883.78;5028508;28;20199;-77
2021/06/28 06:27:08;;;;;;;9.90;8.03;;;;;;;21.02;74.27;100883.81;5021409;28;20213;-77
2021/06/28 06:29:36;;;;;;;10.03;7.77;;;;;;;21.09;71.62;100896.59;5027801;28;20669;-76
2021/06/28 06:32:03;;;;;;;8.33;7.53;;;;;;;21.24;73.02;100894.72;5018224;28;20227;-76
2021/06/28 06:34:31;;;;;;;9.07;7.80;;;;;;;21.30;70.19;100890.78;5031947;28;20277;-77
2021/06/28 06:36:57;;;;;;;7.50;6.73;;;;;;;21.38;69.45;100899.09;5020122;28;20207;-77
2021/06/28 06:39:23;;;;;;;7.33;6.63;;;;;;;21.43;68.78;100902.28;5015632;28;20306;-77
2021/06/28 06:41:50;;;;;;;6.80;6.10;;;;;;;21.53;70.16;100892.78;5025753;28;20219;-78
2021/06/28 06:44:16;;;;;;;7.17;6.40;;;;;;;21.63;70.31;100892.16;5021142;28;20289;-78
2021/06/28 06:46:42;;;;;;;6.30;5.60;;;;;;;21.68;65.95;100900.66;5028241;28;20239;-78
2021/06/28 06:49:09;;;;;;;5.93;5.33;;;;;;;21.80;65.04;100898.97;5022913;28;20295;-78
2021/06/28 06:51:37;;;;;;;7.57;6.00;;;;;;;21.88;64.81;100894.84;5025524;28;20228;-78
2021/06/28 06:54:04;;;;;;;6.90;6.00;;;;;;;21.95;65.87;100900.53;5022795;28;20727;-79
2021/06/28 06:56:30;;;;;;;7.33;6.30;;;;;;;22.06;66.13;100890.03;5030363;28;20196;-76
2021/06/28 06:58:56;;;;;;;7.13;5.67;;;;;;;22.19;66.10;100897.13;5024732;28;20299;-78
2021/06/28 07:01:23;;;;;;;6.23;5.63;;;;;;;22.31;66.24;100897.13;5032375;28;20228;-80
2021/06/28 07:03:50;;;;;;;8.00;5.60;;;;;;;22.38;65.72;100902.03;5034216;28;20211;-81
2021/06/28 07:06:16;;;;;;;6.20;5.37;;;;;;;22.46;65.20;100908.50;5023384;28;20230;-79
2021/06/28 07:08:44;;;;;;;5.47;4.97;;;;;;;22.58;63.51;100911.19;5030751;28;20219;-79
2021/06/28 07:11:11;;;;;;;6.20;5.07;;;;;;;22.69;63.38;100920.09;5022405;28;20224;-81
2021/06/28 07:13:38;;;;;;;5.30;4.80;;;;;;;22.79;59.50;100922.09;5009174;28;20220;-80
2021/06/28 07:16:06;;;;;;;6.20;5.60;;;;;;;22.84;62.26;100919.94;5029714;28;20202;-80
2021/06/28 07:18:33;;;;;;;5.90;5.33;;;;;;;22.94;61.23;100920.97;5031987;28;20204;-81
2021/06/28 07:21:00;;;;;;;5.77;5.20;;;;;;;22.95;61.82;100924.47;5025401;28;20223;-80
2021/06/28 07:23:26;;;;;;;6.17;4.80;;;;;;;23.02;58.77;100928.38;5024824;28;20262;-79
2021/06/28 07:25:54;;;;;;;5.10;4.47;;;;;;;23.11;58.69;100934.84;5031497;28;20200;-78
2021/06/28 07:28:20;;;;;;;5.40;4.67;;;;;;;23.25;59.86;100932.00;5009005;28;20294;-79
2021/06/28 07:30:46;;;;;;;6.03;5.43;;;;;;;23.36;60.34;100936.53;5032301;28;20227;-80
2021/06/28 07:33:13;;;;;;;5.63;4.97;;;;;;;23.43;60.52;100935.13;5020976;28;20259;-81
2021/06/28 07:35:40;;;;;;;6.05;5.13;;;;;;;23.36;62.07;100929.41;5029969;28;20193;-81
2021/06/28 07:38:06;;;;;;;5.80;5.20;;;;;;;23.30;59.16;100923.69;5025872;28;20219;-80
2021/06/28 07:40:33;;;;;;;5.10;4.60;;;;;;;23.30;59.68;100937.00;5025191;28;20235;-80
2021/06/28 07:43:00;;;;;;;6.15;5.55;;;;;;;23.31;60.79;100926.25;5037037;28;20611;-80
2021/06/28 07:45:27;;;;;;;5.60;5.10;;;;;;;23.43;58.58;100935.13;5024061;28;20204;-81
2021/06/28 07:47:54;;;;;;;6.57;5.47;;;;;;;23.64;59.12;100927.31;5027656;28;20325;-78
2021/06/28 07:50:20;;;;;;;6.82;4.97;;;;;;;23.70;57.56;100928.66;5025023;28;20291;-79
2021/06/28 07:52:47;;;;;;;5.55;5.05;;;;;;;23.85;58.40;100927.50;5031034;28;20227;-79
2021/06/28 07:55:14;;;;;;;4.83;4.33;;;;;;;23.96;56.09;100921.34;5014161;28;20276;-79
2021/06/28 07:57:41;;;;;;;4.85;4.45;;;;;;;24.04;55.47;100926.91;5023860;28;20296;-79
2021/06/28 08:00:11;;;;;;;5.17;4.77;;;;;;;24.30;55.10;100930.19;5014660;28;20295;-79
2021/06/28 08:02:40;;;;;;;4.50;4.10;;;;;;;24.44;54.60;100929.09;5019614;28;20232;-77
2021/06/28 08:05:08;;;;;;;5.05;4.65;;;;;;;24.62;55.57;100933.94;5026578;28;20702;-79
2021/06/28 08:07:34;;;;;;;5.32;4.82;;;;;;;24.66;54.46;100938.91;5026027;28;20836;-78
2021/06/28 08:10:01;;;;;;;5.22;4.72;;;;;;;24.70;55.63;100936.84;5030522;28;20204;-78
2021/06/28 08:12:27;;;;;;;5.10;4.60;;;;;;;24.69;54.75;100937.81;5017334;28;20227;-79
2021/06/28 08:14:54;;;;;;;5.55;4.97;;;;;;;24.87;55.30;100919.44;5026660;28;20494;-79
2021/06/28 08:17:21;;;;;;;6.30;4.95;;;;;;;24.99;54.81;100918.44;5023115;28;20291;-79
2021/06/28 08:19:48;;;;;;;6.15;4.97;;;;;;;25.13;54.29;100922.63;5024434;28;20204;-80
2021/06/28 08:22:14;;;;;;;5.13;4.72;;;;;;;25.30;55.75;100918.59;5029614;28;20804;-77
2021/06/28 08:24:41;;;;;;;5.20;4.70;;;;;;;25.35;53.05;100926.22;5026806;28;20192;-77
2021/06/28 08:27:08;;;;;;;4.57;4.18;;;;;;;25.43;52.47;100921.09;5013800;28;20204;-77
2021/06/28 08:29:34;;;;;;;4.72;4.32;;;;;;;25.59;50.02;100926.81;5024664;28;20688;-77
2021/06/28 08:32:01;;;;;;;4.68;4.28;;;;;;;25.66;50.49;100928.00;5018624;28;20459;-80
2021/06/28 08:34:28;;;;;;;5.45;4.30;;;;;;;25.69;51.27;100924.22;5030428;28;20203;-80
2021/06/28 08:36:55;;;;;;;4.40;4.00;;;;;;;25.70;50.29;100932.09;5020077;28;20612;-80
2021/06/28 08:39:22;;;;;;;3.90;3.60;;;;;;;25.84;49.41;100938.94;5031439;28;20712;-78
2021/06/28 08:41:52;;;;;;;3.92;3.53;;;;;;;26.02;46.61;100949.03;5023549;28;20240;-77
2021/06/28 08:44:19;;;;;;;4.15;3.75;;;;;;;26.17;48.31;100928.13;5024213;28;20235;-77
2021/06/28 08:46:46;;;;;;;4.00;3.70;;;;;;;26.25;48.28;100923.81;5026369;28;20650;-80
2021/06/28 08:49:13;;;;;;;4.20;3.88;;;;;;;26.26;47.75;100930.88;5022322;28;20289;-78
2021/06/28 08:51:43;;;;;;;4.63;3.45;;;;;;;26.27;45.99;100929.88;5030011;28;20230;-78
2021/06/28 08:54:12;;;;;;;4.13;3.72;;;;;;;26.45;45.68;100934.56;5024336;28;20266;-79
2021/06/28 08:56:40;;;;;;;3.63;3.33;;;;;;;26.45;45.51;100929.22;5025398;28;20216;-76
2021/06/28 08:59:08;;;;;;;4.32;3.92;;;;;;;26.56;45.75;100933.63;5022731;28;20573;-80
2021/06/28 09:01:36;;;;;;;4.05;3.65;;;;;;;26.72;46.94;100930.44;5024961;28;20232;-79
2021/06/28 09:04:04;;;;;;;4.35;3.55;;;;;;;26.95;45.98;100931.06;5027704;28;20676;-78
2021/06/28 09:06:32;;;;;;;3.97;3.60;;;;;;;27.05;47.51;100925.72;5024644;28;20204;-79
2021/06/28 09:09:03;;;;;;;3.83;3.45;;;;;;;27.15;42.13;100946.13;5026270;28;20230;-79
2021/06/28 09:11:29;;;;;;;4.03;3.70;;;;;;;27.19;48.42;100928.81;5018361;28;20441;-79
2021/06/28 09:13:57;;;;;;;3.90;3.55;;;;;;;27.33;45.76;100924.03;5033563;28;20599;-80
2021/06/28 09:16:25;;;;;;;4.13;3.72;;;;;;;27.43;44.14;100924.06;5026782;28;20211;-80
2021/06/28 09:18:57;;;;;;;3.05;2.80;;;;;;;27.54;42.62;100931.91;5029801;28;20585;-79
2021/06/28 09:21:31;;;;;;;3.10;2.90;;;;;;;27.58;41.76;100930.63;5030186;28;20574;-80
2021/06/28 09:24:00;;;;;;;3.05;2.75;;;;;;;27.55;42.54;100931.78;5025370;28;20212;-78
2021/06/28 09:26:32;;;;;;;3.13;2.92;;;;;;;27.63;39.13;100933.72;5034937;28;20206;-80
2021/06/28 09:29:01;;;;;;;3.80;3.47;;;;;;;27.70;43.03;100918.78;5022307;28;20208;-79
2021/06/28 09:31:42;;;;;;;3.22;2.92;;;;;;;27.64;39.40;100931.91;5031342;28;20230;-79
2021/06/28 09:34:15;;;;;;;2.75;2.55;;;;;;;27.76;41.37;100936.13;5029511;28;20388;-78
2021/06/28 09:36:47;;;;;;;3.17;2.88;;;;;;;27.86;40.54;100928.91;5006512;28;20217;-77
2021/06/28 09:39:27;;;;;;;3.05;2.85;;;;;;;27.92;41.02;100933.69;5031395;28;20752;-79
2021/06/28 09:42:00;;;;;;;3.17;2.88;;;;;;;27.73;39.99;100923.84;5027227;28;20591;-78
2021/06/28 09:44:30;;;;;;;3.00;2.75;;;;;;;27.62;37.57;100933.91;5028825;28;20210;-79
2021/06/28 09:47:10;;;;;;;4.85;2.92;;;;;;;27.69;40.82;100927.81;5029537;28;20207;-78
2021/06/28 09:49:37;;;;;;;3.65;3.28;;;;;;;27.81;42.31;100920.47;5026146;28;20284;-78
2021/06/28 09:52:05;;;;;;;3.60;3.30;;;;;;;27.82;40.96;100934.69;5025837;28;20230;-80
2021/06/28 09:54:36;;;;;;;4.90;3.60;;;;;;;27.97;41.28;100929.72;5027411;28;20318;-80
2021/06/28 09:57:06;;;;;;;3.58;3.15;;;;;;;28.01;39.67;100934.66;5030233;28;21268;-78
2021/06/28 09:59:35;;;;;;;3.60;3.30;;;;;;;28.18;40.14;100930.38;5026109;28;20223;-80
2021/06/28 10:02:27;;;;;;;3.70;3.40;;;;;;;28.23;41.68;100927.22;5023030;28;20314;-79
2021/06/28 10:04:57;;;;;;;4.30;3.53;;;;;;;28.28;40.54;100924.94;5008133;28;20208;-80
2021/06/28 10:07:35;;;;;;;3.60;3.30;;;;;;;28.44;39.24;100930.53;5025962;28;20210;-80
2021/06/28 10:10:26;;;;;;;3.75;3.45;;;;;;;28.62;40.53;100930.59;5011957;28;20199;-79
2021/06/28 10:13:04;;;;;;;3.42;3.10;;;;;;;28.59;36.01;100935.41;5018153;28;20628;-80
2021/06/28 10:15:33;;;;;;;2.97;2.78;;;;;;;28.50;36.06;100921.03;5001286;28;20204;-78
2021/06/28 10:18:01;;;;;;;3.20;2.90;;;;;;;28.60;37.55;100915.63;5029492;28;21402;-79
2021/06/28 10:20:30;;;;;;;3.35;3.05;;;;;;;28.75;36.60;100915.97;5021256;28;20310;-79
2021/06/28 10:23:00;;;;;;;3.15;2.60;;;;;;;28.96;36.03;100919.19;5023451;28;20215;-78
2021/06/28 10:25:30;;;;;;;3.00;2.70;;;;;;;29.07;35.01;100916.28;5020314;28;20204;-78
2021/06/28 10:27:57;;;;;;;3.45;3.10;;;;;;;28.96;35.78;100907.63;5025428;28;20207;-79
2021/06/28 10:30:26;;;;;;;3.40;2.85;;;;;;;29.05;34.98;100904.00;5024232;28;20195;-79
2021/06/28 10:33:00;;;;;;;3.20;2.63;;;;;;;29.21;36.42;100896.13;5028496;28;20584;-78
2021/06/28 10:35:29;;;;;;;3.10;2.80;;;;;;;29.35;34.79;100905.47;5035940;28;20212;-79
2021/06/28 10:38:01;;;;;;;3.10;2.63;;;;;;;29.34;35.81;100903.81;5029073;28;20250;-77
2021/06/28 10:40:29;;;;;;;3.30;3.00;;;;;;;29.22;34.38;100891.63;5036140;28;20207;-80
2021/06/28 10:42:57;;;;;;;3.75;3.30;;;;;;;29.24;36.26;100881.56;5028393;28;20226;-78
2021/06/28 10:45:38;;;;;;;3.75;3.20;;;;;;;29.37;35.52;100881.97;5027525;28;20205;-80
2021/06/28 10:48:11;;;;;;;3.65;3.35;;;;;;;29.17;35.19;100880.50;5033334;28;23825;-80
2021/06/28 10:50:50;;;;;;;4.10;3.70;;;;;;;29.18;36.78;100868.75;5025709;28;20231;-80
2021/06/28 10:53:17;;;;;;;4.97;3.38;;;;;;;29.29;37.57;100870.34;5029986;28;20315;-79
2021/06/28 10:55:45;;;;;;;3.60;3.22;;;;;;;29.20;37.10;100872.13;5025866;28;20214;-80
2021/06/28 10:58:31;;;;;;;4.25;3.40;;;;;;;29.23;35.50;100869.13;5026122;28;20219;-80
2021/06/28 11:01:08;;;;;;;3.70;3.28;;;;;;;29.43;36.62;100875.16;5033433;28;20293;-78
2021/06/28 11:03:35;;;;;;;4.82;3.85;;;;;;;29.12;37.48;100872.88;5026693;28;20230;-80
2021/06/28 11:06:16;;;;;;;4.00;3.70;;;;;;;29.10;36.60;100874.88;5026804;28;21547;-78
2021/06/28 11:08:57;;;;;;;3.95;3.58;;;;;;;29.26;36.58;100864.28;5010094;28;20705;-80
2021/06/28 11:12:04;;;;;;;3.67;3.35;;;;;;;29.44;35.57;100863.41;5023234;28;20583;-80
2021/06/28 11:14:45;;;;;;;3.75;3.45;;;;;;;29.74;35.91;100863.94;5026800;28;20267;-80
2021/06/28 11:17:15;;;;;;;4.25;3.85;;;;;;;29.83;35.76;100860.31;5020364;28;20651;-79
2021/06/28 11:19:58;;;;;;;3.53;3.22;;;;;;;29.74;33.65;100870.13;5025610;28;20217;-78
2021/06/28 11:22:35;;;;;;;4.13;3.78;;;;;;;29.88;36.58;100866.03;5030250;28;20222;-80
2021/06/28 11:25:06;;;;;;;4.65;3.40;;;;;;;30.03;33.20;100858.22;5018536;28;20719;-78
2021/06/28 11:27:33;;;;;;;4.10;3.70;;;;;;;30.15;36.57;100854.25;5028018;28;20425;-80